sensor_id;sensor_type;location;lat;lon;timestamp;P1;durP1;ratioP1;P2;durP2;ratioP2
18046;SDS011;9148;51.454;13.862;2022-09-09T00:00:25;1.00;;;0.87;;
18046;SDS011;9148;51.454;13.862;2022-09-09T00:05:52;0.80;;;0.80;;
18046;SDS011;9148;51.454;13.862;2022-09-09T00:08:37;2.37;;;1.10;;
18046;SDS011;9148;51.454;13.862;2022-09-09T00:11:12;1.10;;;1.00;;
18046;SDS011;9148;51.454;13.862;2022-09-09T00:17:03;0.90;;;0.90;;
18046;SDS011;9148;51.454;13.862;2022-09-09T00:22:21;0.67;;;0.60;;
18046;SDS011;9148;51.454;13.862;2022-09-09T00:24:51;0.97;;;0.77;;
18046;SDS011;9148;51.454;13.862;2022-09-09T00:27:30;2.30;;;1.23;;
18046;SDS011;9148;51.454;13.862;2022-09-09T00:30:14;1.30;;;1.20;;
18046;SDS011;9148;51.454;13.862;2022-09-09T00:32:45;1.57;;;1.47;;
18046;SDS011;9148;51.454;13.862;2022-09-09T00:35:29;1.13;;;0.80;;
18046;SDS011;9148;51.454;13.862;2022-09-09T00:38:10;1.07;;;0.97;;
18046;SDS011;9148;51.454;13.862;2022-09-09T00:40:49;0.97;;;0.70;;
18046;SDS011;9148;51.454;13.862;2022-09-09T00:48:43;1.13;;;1.03;;
18046;SDS011;9148;51.454;13.862;2022-09-09T00:51:17;1.07;;;0.97;;
18046;SDS011;9148;51.454;13.862;2022-09-09T01:00:16;1.50;;;1.17;;
18046;SDS011;9148;51.454;13.862;2022-09-09T01:05:45;1.57;;;1.20;;
18046;SDS011;9148;51.454;13.862;2022-09-09T01:12:01;1.17;;;1.03;;
18046;SDS011;9148;51.454;13.862;2022-09-09T01:17:17;2.57;;;1.27;;
18046;SDS011;9148;51.454;13.862;2022-09-09T01:22:50;1.17;;;1.00;;
18046;SDS011;9148;51.454;13.862;2022-09-09T01:28:33;1.00;;;1.00;;
18046;SDS011;9148;51.454;13.862;2022-09-09T01:31:02;1.13;;;0.93;;
18046;SDS011;9148;51.454;13.862;2022-09-09T01:33:31;1.40;;;1.30;;
18046;SDS011;9148;51.454;13.862;2022-09-09T01:36:10;1.27;;;1.17;;
18046;SDS011;9148;51.454;13.862;2022-09-09T01:38:53;0.93;;;0.80;;
18046;SDS011;9148;51.454;13.862;2022-09-09T01:41:18;1.37;;;0.80;;
18046;SDS011;9148;51.454;13.862;2022-09-09T01:43:45;1.07;;;0.97;;
18046;SDS011;9148;51.454;13.862;2022-09-09T01:46:10;2.30;;;0.77;;
18046;SDS011;9148;51.454;13.862;2022-09-09T01:48:37;1.87;;;1.30;;
18046;SDS011;9148;51.454;13.862;2022-09-09T01:51:04;1.87;;;1.60;;
18046;SDS011;9148;51.454;13.862;2022-09-09T01:53:30;1.80;;;1.30;;
18046;SDS011;9148;51.454;13.862;2022-09-09T02:04:50;1.53;;;1.03;;
18046;SDS011;9148;51.454;13.862;2022-09-09T02:12:41;1.70;;;1.20;;
18046;SDS011;9148;51.454;13.862;2022-09-09T02:15:20;1.47;;;1.00;;
18046;SDS011;9148;51.454;13.862;2022-09-09T02:17:53;2.27;;;1.73;;
18046;SDS011;9148;51.454;13.862;2022-09-09T02:20:23;1.63;;;1.03;;
18046;SDS011;9148;51.454;13.862;2022-09-09T02:22:52;3.50;;;1.03;;
18046;SDS011;9148;51.454;13.862;2022-09-09T02:25:20;1.10;;;1.00;;
18046;SDS011;9148;51.454;13.862;2022-09-09T02:27:49;0.50;;;0.50;;
18046;SDS011;9148;51.454;13.862;2022-09-09T02:30:16;1.37;;;1.27;;
18046;SDS011;9148;51.454;13.862;2022-09-09T02:32:45;0.77;;;0.67;;
18046;SDS011;9148;51.454;13.862;2022-09-09T02:35:13;1.20;;;1.03;;
18046;SDS011;9148;51.454;13.862;2022-09-09T02:37:44;1.30;;;1.20;;
18046;SDS011;9148;51.454;13.862;2022-09-09T02:40:13;1.83;;;1.47;;
18046;SDS011;9148;51.454;13.862;2022-09-09T02:42:41;3.53;;;1.07;;
18046;SDS011;9148;51.454;13.862;2022-09-09T02:45:08;0.70;;;0.60;;
18046;SDS011;9148;51.454;13.862;2022-09-09T02:47:38;1.20;;;0.87;;
18046;SDS011;9148;51.454;13.862;2022-09-09T02:53:45;0.93;;;0.60;;
18046;SDS011;9148;51.454;13.862;2022-09-09T02:56:24;1.93;;;0.80;;
18046;SDS011;9148;51.454;13.862;2022-09-09T02:58:55;1.23;;;1.00;;
18046;SDS011;9148;51.454;13.862;2022-09-09T03:01:21;1.13;;;0.80;;
18046;SDS011;9148;51.454;13.862;2022-09-09T03:03:46;1.13;;;1.03;;
18046;SDS011;9148;51.454;13.862;2022-09-09T03:06:13;2.10;;;1.17;;
18046;SDS011;9148;51.454;13.862;2022-09-09T03:08:39;1.10;;;1.00;;
18046;SDS011;9148;51.454;13.862;2022-09-09T03:11:05;0.97;;;0.90;;
18046;SDS011;9148;51.454;13.862;2022-09-09T03:13:32;0.73;;;0.73;;
18046;SDS011;9148;51.454;13.862;2022-09-09T03:15:58;1.40;;;1.00;;
18046;SDS011;9148;51.454;13.862;2022-09-09T03:18:24;2.73;;;0.77;;
18046;SDS011;9148;51.454;13.862;2022-09-09T03:20:50;1.50;;;1.20;;
18046;SDS011;9148;51.454;13.862;2022-09-09T03:23:16;1.50;;;1.20;;
18046;SDS011;9148;51.454;13.862;2022-09-09T03:25:51;1.57;;;1.40;;
18046;SDS011;9148;51.454;13.862;2022-09-09T03:28:18;1.77;;;1.10;;
18046;SDS011;9148;51.454;13.862;2022-09-09T03:30:45;2.10;;;1.07;;
18046;SDS011;9148;51.454;13.862;2022-09-09T03:33:11;0.80;;;0.80;;
18046;SDS011;9148;51.454;13.862;2022-09-09T03:35:37;2.17;;;1.00;;
18046;SDS011;9148;51.454;13.862;2022-09-09T03:38:04;0.93;;;0.83;;
18046;SDS011;9148;51.454;13.862;2022-09-09T03:40:30;0.70;;;0.70;;
18046;SDS011;9148;51.454;13.862;2022-09-09T03:42:56;1.00;;;0.90;;
18046;SDS011;9148;51.454;13.862;2022-09-09T03:45:21;1.13;;;1.03;;
18046;SDS011;9148;51.454;13.862;2022-09-09T03:47:47;1.20;;;0.80;;
18046;SDS011;9148;51.454;13.862;2022-09-09T03:50:12;0.70;;;0.70;;
18046;SDS011;9148;51.454;13.862;2022-09-09T03:52:39;2.20;;;1.43;;
18046;SDS011;9148;51.454;13.862;2022-09-09T03:55:06;1.17;;;1.07;;
18046;SDS011;9148;51.454;13.862;2022-09-09T03:57:33;1.03;;;0.93;;
18046;SDS011;9148;51.454;13.862;2022-09-09T04:00:03;2.80;;;1.57;;
18046;SDS011;9148;51.454;13.862;2022-09-09T04:02:32;1.50;;;1.30;;
18046;SDS011;9148;51.454;13.862;2022-09-09T04:04:57;3.03;;;1.20;;
18046;SDS011;9148;51.454;13.862;2022-09-09T04:07:24;2.07;;;1.43;;
18046;SDS011;9148;51.454;13.862;2022-09-09T04:09:52;1.57;;;1.37;;
18046;SDS011;9148;51.454;13.862;2022-09-09T04:12:18;1.57;;;1.20;;
18046;SDS011;9148;51.454;13.862;2022-09-09T04:14:44;1.10;;;1.00;;
18046;SDS011;9148;51.454;13.862;2022-09-09T04:17:09;1.67;;;1.43;;
18046;SDS011;9148;51.454;13.862;2022-09-09T04:19:35;1.40;;;1.30;;
18046;SDS011;9148;51.454;13.862;2022-09-09T04:22:01;1.90;;;0.87;;
18046;SDS011;9148;51.454;13.862;2022-09-09T04:24:27;2.97;;;0.77;;
18046;SDS011;9148;51.454;13.862;2022-09-09T04:26:54;1.60;;;1.50;;
18046;SDS011;9148;51.454;13.862;2022-09-09T04:29:20;2.13;;;1.17;;
18046;SDS011;9148;51.454;13.862;2022-09-09T04:31:46;0.97;;;0.77;;
18046;SDS011;9148;51.454;13.862;2022-09-09T04:34:11;1.90;;;1.10;;
18046;SDS011;9148;51.454;13.862;2022-09-09T04:36:37;2.13;;;1.93;;
18046;SDS011;9148;51.454;13.862;2022-09-09T04:39:04;1.70;;;1.27;;
18046;SDS011;9148;51.454;13.862;2022-09-09T04:41:29;1.77;;;1.57;;
18046;SDS011;9148;51.454;13.862;2022-09-09T04:43:56;1.67;;;1.20;;
18046;SDS011;9148;51.454;13.862;2022-09-09T04:46:22;2.77;;;1.67;;
18046;SDS011;9148;51.454;13.862;2022-09-09T04:48:48;2.00;;;1.80;;
18046;SDS011;9148;51.454;13.862;2022-09-09T04:51:15;1.47;;;1.20;;
18046;SDS011;9148;51.454;13.862;2022-09-09T04:53:41;1.87;;;1.40;;
18046;SDS011;9148;51.454;13.862;2022-09-09T04:56:08;1.40;;;1.30;;
18046;SDS011;9148;51.454;13.862;2022-09-09T04:58:38;1.47;;;1.17;;
18046;SDS011;9148;51.454;13.862;2022-09-09T05:01:11;2.00;;;1.50;;
18046;SDS011;9148;51.454;13.862;2022-09-09T05:03:42;2.13;;;1.50;;
18046;SDS011;9148;51.454;13.862;2022-09-09T05:06:11;1.07;;;0.90;;
18046;SDS011;9148;51.454;13.862;2022-09-09T05:08:40;1.20;;;1.10;;
18046;SDS011;9148;51.454;13.862;2022-09-09T05:13:49;1.20;;;1.10;;
18046;SDS011;9148;51.454;13.862;2022-09-09T05:16:15;2.00;;;1.03;;
18046;SDS011;9148;51.454;13.862;2022-09-09T05:18:42;1.43;;;1.33;;
18046;SDS011;9148;51.454;13.862;2022-09-09T05:21:08;4.57;;;1.57;;
18046;SDS011;9148;51.454;13.862;2022-09-09T05:23:35;0.97;;;0.97;;
18046;SDS011;9148;51.454;13.862;2022-09-09T05:26:02;2.47;;;0.70;;
18046;SDS011;9148;51.454;13.862;2022-09-09T05:28:29;3.97;;;1.10;;
18046;SDS011;9148;51.454;13.862;2022-09-09T05:31:03;2.63;;;1.27;;
18046;SDS011;9148;51.454;13.862;2022-09-09T05:33:32;0.70;;;0.70;;
18046;SDS011;9148;51.454;13.862;2022-09-09T05:36:04;1.37;;;1.17;;
18046;SDS011;9148;51.454;13.862;2022-09-09T05:38:33;0.97;;;0.93;;
18046;SDS011;9148;51.454;13.862;2022-09-09T05:40:59;1.27;;;0.80;;
18046;SDS011;9148;51.454;13.862;2022-09-09T05:43:27;0.77;;;0.77;;
18046;SDS011;9148;51.454;13.862;2022-09-09T05:46:04;1.23;;;0.83;;
18046;SDS011;9148;51.454;13.862;2022-09-09T05:48:33;1.33;;;0.77;;
18046;SDS011;9148;51.454;13.862;2022-09-09T05:51:02;2.50;;;1.10;;
18046;SDS011;9148;51.454;13.862;2022-09-09T05:53:29;1.10;;;1.00;;
18046;SDS011;9148;51.454;13.862;2022-09-09T05:56:12;1.30;;;1.13;;
18046;SDS011;9148;51.454;13.862;2022-09-09T05:58:41;1.10;;;1.00;;
18046;SDS011;9148;51.454;13.862;2022-09-09T06:01:12;2.00;;;1.23;;
18046;SDS011;9148;51.454;13.862;2022-09-09T06:03:42;0.83;;;0.83;;
18046;SDS011;9148;51.454;13.862;2022-09-09T06:06:10;2.00;;;0.90;;
18046;SDS011;9148;51.454;13.862;2022-09-09T06:08:47;6.73;;;1.00;;
18046;SDS011;9148;51.454;13.862;2022-09-09T06:11:17;0.83;;;0.63;;
18046;SDS011;9148;51.454;13.862;2022-09-09T06:13:49;0.93;;;0.67;;
18046;SDS011;9148;51.454;13.862;2022-09-09T06:16:20;0.63;;;0.63;;
18046;SDS011;9148;51.454;13.862;2022-09-09T06:18:48;0.45;;;0.45;;
18046;SDS011;9148;51.454;13.862;2022-09-09T06:21:16;2.50;;;0.80;;
18046;SDS011;9148;51.454;13.862;2022-09-09T06:23:46;0.35;;;0.35;;
18046;SDS011;9148;51.454;13.862;2022-09-09T06:26:14;0.50;;;0.50;;
18046;SDS011;9148;51.454;13.862;2022-09-09T06:28:55;2.70;;;0.80;;
18046;SDS011;9148;51.454;13.862;2022-09-09T06:31:23;0.90;;;0.85;;
18046;SDS011;9148;51.454;13.862;2022-09-09T06:33:52;0.60;;;0.60;;
18046;SDS011;9148;51.454;13.862;2022-09-09T06:36:21;0.60;;;0.57;;
18046;SDS011;9148;51.454;13.862;2022-09-09T06:38:51;0.22;;;0.22;;
18046;SDS011;9148;51.454;13.862;2022-09-09T06:41:18;1.55;;;0.80;;
18046;SDS011;9148;51.454;13.862;2022-09-09T06:43:46;1.23;;;0.60;;
18046;SDS011;9148;51.454;13.862;2022-09-09T06:46:22;0.30;;;0.30;;
18046;SDS011;9148;51.454;13.862;2022-09-09T06:48:56;0.52;;;0.45;;
18046;SDS011;9148;51.454;13.862;2022-09-09T06:51:24;0.70;;;0.60;;
18046;SDS011;9148;51.454;13.862;2022-09-09T06:53:56;2.35;;;0.60;;
18046;SDS011;9148;51.454;13.862;2022-09-09T06:58:56;0.52;;;0.52;;
18046;SDS011;9148;51.454;13.862;2022-09-09T07:01:24;0.50;;;0.50;;
18046;SDS011;9148;51.454;13.862;2022-09-09T07:03:54;0.47;;;0.47;;
18046;SDS011;9148;51.454;13.862;2022-09-09T07:06:23;1.45;;;0.80;;
18046;SDS011;9148;51.454;13.862;2022-09-09T07:08:54;0.30;;;0.30;;
18046;SDS011;9148;51.454;13.862;2022-09-09T07:11:24;2.58;;;0.63;;
18046;SDS011;9148;51.454;13.862;2022-09-09T07:13:52;1.08;;;0.98;;
18046;SDS011;9148;51.454;13.862;2022-09-09T07:16:19;0.50;;;0.40;;
18046;SDS011;9148;51.454;13.862;2022-09-09T07:18:49;0.63;;;0.38;;
18046;SDS011;9148;51.454;13.862;2022-09-09T07:21:15;0.50;;;0.50;;
18046;SDS011;9148;51.454;13.862;2022-09-09T07:23:42;0.63;;;0.63;;
18046;SDS011;9148;51.454;13.862;2022-09-09T07:26:09;0.25;;;0.25;;
18046;SDS011;9148;51.454;13.862;2022-09-09T07:28:46;0.32;;;0.32;;
18046;SDS011;9148;51.454;13.862;2022-09-09T07:31:14;0.40;;;0.40;;
18046;SDS011;9148;51.454;13.862;2022-09-09T07:33:42;0.52;;;0.20;;
18046;SDS011;9148;51.454;13.862;2022-09-09T07:36:10;1.77;;;0.60;;
18046;SDS011;9148;51.454;13.862;2022-09-09T07:38:41;0.30;;;0.30;;
18046;SDS011;9148;51.454;13.862;2022-09-09T07:41:10;0.50;;;0.30;;
18046;SDS011;9148;51.454;13.862;2022-09-09T07:43:42;0.50;;;0.50;;
18046;SDS011;9148;51.454;13.862;2022-09-09T07:46:11;0.30;;;0.30;;
18046;SDS011;9148;51.454;13.862;2022-09-09T07:48:43;0.98;;;0.47;;
18046;SDS011;9148;51.454;13.862;2022-09-09T07:51:17;0.40;;;0.20;;
18046;SDS011;9148;51.454;13.862;2022-09-09T07:54:04;0.28;;;0.28;;
18046;SDS011;9148;51.454;13.862;2022-09-09T07:56:34;1.00;;;0.32;;
18046;SDS011;9148;51.454;13.862;2022-09-09T07:59:00;0.65;;;0.30;;
18046;SDS011;9148;51.454;13.862;2022-09-09T08:01:27;2.08;;;0.68;;
18046;SDS011;9148;51.454;13.862;2022-09-09T08:04:00;0.20;;;0.20;;
18046;SDS011;9148;51.454;13.862;2022-09-09T08:06:30;0.28;;;0.20;;
18046;SDS011;9148;51.454;13.862;2022-09-09T08:08:59;1.13;;;0.45;;
18046;SDS011;9148;51.454;13.862;2022-09-09T08:11:26;1.35;;;0.43;;
18046;SDS011;9148;51.454;13.862;2022-09-09T08:13:54;0.20;;;0.20;;
18046;SDS011;9148;51.454;13.862;2022-09-09T08:16:22;0.40;;;0.40;;
18046;SDS011;9148;51.454;13.862;2022-09-09T08:18:51;0.22;;;0.20;;
18046;SDS011;9148;51.454;13.862;2022-09-09T08:21:19;3.00;;;0.40;;
18046;SDS011;9148;51.454;13.862;2022-09-09T08:23:53;0.28;;;0.20;;
18046;SDS011;9148;51.454;13.862;2022-09-09T08:26:21;1.20;;;0.45;;
18046;SDS011;9148;51.454;13.862;2022-09-09T08:28:56;0.95;;;0.45;;
18046;SDS011;9148;51.454;13.862;2022-09-09T08:33:58;2.85;;;0.52;;
18046;SDS011;9148;51.454;13.862;2022-09-09T08:36:26;0.85;;;0.40;;
18046;SDS011;9148;51.454;13.862;2022-09-09T08:38:54;0.30;;;0.22;;
18046;SDS011;9148;51.454;13.862;2022-09-09T08:41:30;0.30;;;0.30;;
18046;SDS011;9148;51.454;13.862;2022-09-09T08:47:10;0.73;;;0.40;;
18046;SDS011;9148;51.454;13.862;2022-09-09T08:52:57;0.25;;;0.25;;
18046;SDS011;9148;51.454;13.862;2022-09-09T08:58:21;2.90;;;0.40;;
18046;SDS011;9148;51.454;13.862;2022-09-09T09:12:57;0.20;;;0.20;;
18046;SDS011;9148;51.454;13.862;2022-09-09T09:15:24;0.20;;;0.20;;
18046;SDS011;9148;51.454;13.862;2022-09-09T09:17:53;0.38;;;0.15;;
18046;SDS011;9148;51.454;13.862;2022-09-09T09:20:21;0.20;;;0.20;;
18046;SDS011;9148;51.454;13.862;2022-09-09T09:23:02;0.95;;;0.65;;
18046;SDS011;9148;51.454;13.862;2022-09-09T09:25:31;0.25;;;0.25;;
18046;SDS011;9148;51.454;13.862;2022-09-09T09:28:07;0.00;;;0.00;;
18046;SDS011;9148;51.454;13.862;2022-09-09T09:33:24;0.30;;;0.30;;
18046;SDS011;9148;51.454;13.862;2022-09-09T09:36:17;4.00;;;0.50;;
18046;SDS011;9148;51.454;13.862;2022-09-09T09:39:00;3.13;;;0.63;;
18046;SDS011;9148;51.454;13.862;2022-09-09T09:41:49;0.10;;;0.10;;
18046;SDS011;9148;51.454;13.862;2022-09-09T09:46:52;0.40;;;0.40;;
18046;SDS011;9148;51.454;13.862;2022-09-09T09:49:50;0.55;;;0.20;;
18046;SDS011;9148;51.454;13.862;2022-09-09T09:52:21;1.00;;;0.50;;
18046;SDS011;9148;51.454;13.862;2022-09-09T09:54:50;0.55;;;0.55;;
18046;SDS011;9148;51.454;13.862;2022-09-09T09:57:17;1.13;;;0.75;;
18046;SDS011;9148;51.454;13.862;2022-09-09T10:02:39;0.65;;;0.63;;
18046;SDS011;9148;51.454;13.862;2022-09-09T10:07:45;0.55;;;0.55;;
18046;SDS011;9148;51.454;13.862;2022-09-09T10:10:25;0.85;;;0.75;;
18046;SDS011;9148;51.454;13.862;2022-09-09T10:13:25;2.28;;;0.50;;
18046;SDS011;9148;51.454;13.862;2022-09-09T10:16:49;0.98;;;0.30;;
18046;SDS011;9148;51.454;13.862;2022-09-09T10:19:37;1.45;;;0.38;;
18046;SDS011;9148;51.454;13.862;2022-09-09T10:22:24;10.25;;;0.50;;
18046;SDS011;9148;51.454;13.862;2022-09-09T10:24:57;0.20;;;0.20;;
18046;SDS011;9148;51.454;13.862;2022-09-09T10:33:51;0.35;;;0.32;;
18046;SDS011;9148;51.454;13.862;2022-09-09T10:36:29;0.20;;;0.20;;
18046;SDS011;9148;51.454;13.862;2022-09-09T10:38:59;0.85;;;0.28;;
18046;SDS011;9148;51.454;13.862;2022-09-09T10:41:42;0.40;;;0.40;;
18046;SDS011;9148;51.454;13.862;2022-09-09T10:53:22;0.28;;;0.28;;
18046;SDS011;9148;51.454;13.862;2022-09-09T10:56:16;2.08;;;0.70;;
18046;SDS011;9148;51.454;13.862;2022-09-09T11:01:43;0.32;;;0.32;;
18046;SDS011;9148;51.454;13.862;2022-09-09T11:04:22;0.35;;;0.35;;
18046;SDS011;9148;51.454;13.862;2022-09-09T11:06:57;0.40;;;0.30;;
18046;SDS011;9148;51.454;13.862;2022-09-09T11:09:29;0.10;;;0.10;;
18046;SDS011;9148;51.454;13.862;2022-09-09T11:12:01;0.20;;;0.20;;
18046;SDS011;9148;51.454;13.862;2022-09-09T11:14:29;1.08;;;0.52;;
18046;SDS011;9148;51.454;13.862;2022-09-09T11:19:45;0.60;;;0.20;;
18046;SDS011;9148;51.454;13.862;2022-09-09T11:25:00;0.50;;;0.20;;
18046;SDS011;9148;51.454;13.862;2022-09-09T11:36:53;0.10;;;0.10;;
18046;SDS011;9148;51.454;13.862;2022-09-09T11:42:40;0.65;;;0.30;;
18046;SDS011;9148;51.454;13.862;2022-09-09T11:45:11;0.52;;;0.15;;
18046;SDS011;9148;51.454;13.862;2022-09-09T11:47:55;0.70;;;0.35;;
18046;SDS011;9148;51.454;13.862;2022-09-09T11:50:27;0.20;;;0.17;;
18046;SDS011;9148;51.454;13.862;2022-09-09T11:53:17;2.45;;;0.10;;
18046;SDS011;9148;51.454;13.862;2022-09-09T11:55:47;0.47;;;0.47;;
18046;SDS011;9148;51.454;13.862;2022-09-09T11:58:26;0.10;;;0.08;;
18046;SDS011;9148;51.454;13.862;2022-09-09T12:00:57;0.10;;;0.10;;
18046;SDS011;9148;51.454;13.862;2022-09-09T12:03:37;0.32;;;0.20;;
18046;SDS011;9148;51.454;13.862;2022-09-09T12:06:32;0.20;;;0.20;;
18046;SDS011;9148;51.454;13.862;2022-09-09T12:09:12;0.52;;;0.20;;
18046;SDS011;9148;51.454;13.862;2022-09-09T12:11:52;0.40;;;0.30;;
18046;SDS011;9148;51.454;13.862;2022-09-09T12:19:41;0.30;;;0.28;;
18046;SDS011;9148;51.454;13.862;2022-09-09T12:22:09;1.25;;;0.20;;
18046;SDS011;9148;51.454;13.862;2022-09-09T12:24:54;0.05;;;0.05;;
18046;SDS011;9148;51.454;13.862;2022-09-09T12:27:45;0.47;;;0.28;;
18046;SDS011;9148;51.454;13.862;2022-09-09T12:30:34;1.85;;;0.68;;
18046;SDS011;9148;51.454;13.862;2022-09-09T12:33:16;0.98;;;0.10;;
18046;SDS011;9148;51.454;13.862;2022-09-09T12:35:44;2.72;;;0.32;;
18046;SDS011;9148;51.454;13.862;2022-09-09T12:38:29;0.30;;;0.22;;
18046;SDS011;9148;51.454;13.862;2022-09-09T12:41:00;0.85;;;0.32;;
18046;SDS011;9148;51.454;13.862;2022-09-09T12:43:26;2.47;;;0.30;;
18046;SDS011;9148;51.454;13.862;2022-09-09T12:45:54;0.30;;;0.20;;
18046;SDS011;9148;51.454;13.862;2022-09-09T12:48:31;0.43;;;0.28;;
18046;SDS011;9148;51.454;13.862;2022-09-09T12:51:02;0.52;;;0.35;;
18046;SDS011;9148;51.454;13.862;2022-09-09T12:53:34;0.50;;;0.35;;
18046;SDS011;9148;51.454;13.862;2022-09-09T12:56:02;0.13;;;0.10;;
18046;SDS011;9148;51.454;13.862;2022-09-09T12:58:34;0.40;;;0.30;;
18046;SDS011;9148;51.454;13.862;2022-09-09T13:01:03;1.20;;;0.47;;
18046;SDS011;9148;51.454;13.862;2022-09-09T13:03:31;1.17;;;0.68;;
18046;SDS011;9148;51.454;13.862;2022-09-09T13:05:59;0.90;;;0.50;;
18046;SDS011;9148;51.454;13.862;2022-09-09T13:08:37;2.65;;;0.80;;
18046;SDS011;9148;51.454;13.862;2022-09-09T13:11:04;0.82;;;0.82;;
18046;SDS011;9148;51.454;13.862;2022-09-09T13:13:39;1.20;;;0.57;;
18046;SDS011;9148;51.454;13.862;2022-09-09T13:16:53;1.10;;;0.85;;
18046;SDS011;9148;51.454;13.862;2022-09-09T13:19:07;0.30;;;0.30;;
18046;SDS011;9148;51.454;13.862;2022-09-09T13:21:39;1.13;;;0.90;;
18046;SDS011;9148;51.454;13.862;2022-09-09T13:24:06;4.78;;;1.20;;
18046;SDS011;9148;51.454;13.862;2022-09-09T13:27:00;0.68;;;0.68;;
18046;SDS011;9148;51.454;13.862;2022-09-09T13:29:30;0.65;;;0.65;;
18046;SDS011;9148;51.454;13.862;2022-09-09T13:32:03;1.58;;;0.80;;
18046;SDS011;9148;51.454;13.862;2022-09-09T13:34:33;1.58;;;0.90;;
18046;SDS011;9148;51.454;13.862;2022-09-09T13:37:04;0.65;;;0.65;;
18046;SDS011;9148;51.454;13.862;2022-09-09T13:39:33;0.70;;;0.57;;
18046;SDS011;9148;51.454;13.862;2022-09-09T13:42:01;0.40;;;0.40;;
18046;SDS011;9148;51.454;13.862;2022-09-09T13:44:29;1.52;;;0.55;;
18046;SDS011;9148;51.454;13.862;2022-09-09T13:49:48;0.38;;;0.38;;
18046;SDS011;9148;51.454;13.862;2022-09-09T13:52:14;1.83;;;0.52;;
18046;SDS011;9148;51.454;13.862;2022-09-09T13:54:47;0.65;;;0.38;;
18046;SDS011;9148;51.454;13.862;2022-09-09T13:57:21;3.10;;;0.20;;
18046;SDS011;9148;51.454;13.862;2022-09-09T13:59:50;0.30;;;0.30;;
18046;SDS011;9148;51.454;13.862;2022-09-09T14:02:19;1.95;;;0.32;;
18046;SDS011;9148;51.454;13.862;2022-09-09T14:04:46;1.13;;;0.43;;
18046;SDS011;9148;51.454;13.862;2022-09-09T14:07:16;0.40;;;0.30;;
18046;SDS011;9148;51.454;13.862;2022-09-09T14:09:43;1.02;;;0.45;;
18046;SDS011;9148;51.454;13.862;2022-09-09T14:12:13;0.40;;;0.20;;
18046;SDS011;9148;51.454;13.862;2022-09-09T14:14:40;0.57;;;0.50;;
18046;SDS011;9148;51.454;13.862;2022-09-09T14:17:07;0.40;;;0.40;;
18046;SDS011;9148;51.454;13.862;2022-09-09T14:19:33;2.50;;;0.20;;
18046;SDS011;9148;51.454;13.862;2022-09-09T14:21:59;0.30;;;0.30;;
18046;SDS011;9148;51.454;13.862;2022-09-09T14:24:26;0.60;;;0.38;;
18046;SDS011;9148;51.454;13.862;2022-09-09T14:26:52;0.60;;;0.50;;
18046;SDS011;9148;51.454;13.862;2022-09-09T14:29:19;1.45;;;0.75;;
18046;SDS011;9148;51.454;13.862;2022-09-09T14:31:45;2.47;;;0.30;;
18046;SDS011;9148;51.454;13.862;2022-09-09T14:34:10;0.65;;;0.52;;
18046;SDS011;9148;51.454;13.862;2022-09-09T14:36:38;1.23;;;0.50;;
18046;SDS011;9148;51.454;13.862;2022-09-09T14:39:06;0.32;;;0.30;;
18046;SDS011;9148;51.454;13.862;2022-09-09T14:41:32;0.38;;;0.30;;
18046;SDS011;9148;51.454;13.862;2022-09-09T14:43:58;0.55;;;0.25;;
18046;SDS011;9148;51.454;13.862;2022-09-09T14:46:24;2.05;;;0.68;;
18046;SDS011;9148;51.454;13.862;2022-09-09T14:48:51;0.30;;;0.30;;
18046;SDS011;9148;51.454;13.862;2022-09-09T14:51:18;0.10;;;0.10;;
18046;SDS011;9148;51.454;13.862;2022-09-09T14:53:52;0.28;;;0.28;;
18046;SDS011;9148;51.454;13.862;2022-09-09T14:56:20;0.47;;;0.35;;
18046;SDS011;9148;51.454;13.862;2022-09-09T14:58:49;0.28;;;0.20;;
18046;SDS011;9148;51.454;13.862;2022-09-09T15:01:16;0.65;;;0.43;;
18046;SDS011;9148;51.454;13.862;2022-09-09T15:03:52;0.32;;;0.20;;
18046;SDS011;9148;51.454;13.862;2022-09-09T15:06:24;0.20;;;0.20;;
18046;SDS011;9148;51.454;13.862;2022-09-09T15:08:54;0.30;;;0.20;;
18046;SDS011;9148;51.454;13.862;2022-09-09T15:11:22;0.43;;;0.40;;
18046;SDS011;9148;51.454;13.862;2022-09-09T15:13:50;0.17;;;0.13;;
18046;SDS011;9148;51.454;13.862;2022-09-09T15:16:20;0.35;;;0.17;;
18046;SDS011;9148;51.454;13.862;2022-09-09T15:18:50;0.30;;;0.20;;
18046;SDS011;9148;51.454;13.862;2022-09-09T15:21:19;0.52;;;0.30;;
18046;SDS011;9148;51.454;13.862;2022-09-09T15:23:48;0.65;;;0.32;;
18046;SDS011;9148;51.454;13.862;2022-09-09T15:26:14;0.63;;;0.40;;
18046;SDS011;9148;51.454;13.862;2022-09-09T15:28:41;0.00;;;0.00;;
18046;SDS011;9148;51.454;13.862;2022-09-09T15:31:21;0.73;;;0.38;;
18046;SDS011;9148;51.454;13.862;2022-09-09T15:33:50;0.15;;;0.15;;
18046;SDS011;9148;51.454;13.862;2022-09-09T15:36:22;0.35;;;0.35;;
18046;SDS011;9148;51.454;13.862;2022-09-09T15:38:50;0.35;;;0.28;;
18046;SDS011;9148;51.454;13.862;2022-09-09T15:41:17;0.32;;;0.20;;
18046;SDS011;9148;51.454;13.862;2022-09-09T15:43:45;0.13;;;0.13;;
18046;SDS011;9148;51.454;13.862;2022-09-09T15:48:42;0.47;;;0.47;;
18046;SDS011;9148;51.454;13.862;2022-09-09T15:51:09;0.30;;;0.30;;
18046;SDS011;9148;51.454;13.862;2022-09-09T15:53:35;0.10;;;0.10;;
18046;SDS011;9148;51.454;13.862;2022-09-09T15:56:04;0.28;;;0.28;;
18046;SDS011;9148;51.454;13.862;2022-09-09T15:58:33;0.50;;;0.45;;
18046;SDS011;9148;51.454;13.862;2022-09-09T16:01:04;0.35;;;0.25;;
18046;SDS011;9148;51.454;13.862;2022-09-09T16:03:39;0.90;;;0.20;;
18046;SDS011;9148;51.454;13.862;2022-09-09T16:06:16;2.17;;;0.57;;
18046;SDS011;9148;51.454;13.862;2022-09-09T16:08:44;0.50;;;0.50;;
18046;SDS011;9148;51.454;13.862;2022-09-09T16:11:16;2.72;;;0.75;;
18046;SDS011;9148;51.454;13.862;2022-09-09T16:13:48;2.45;;;1.02;;
18046;SDS011;9148;51.454;13.862;2022-09-09T16:16:16;0.80;;;0.52;;
18046;SDS011;9148;51.454;13.862;2022-09-09T16:18:51;0.55;;;0.50;;
18046;SDS011;9148;51.454;13.862;2022-09-09T16:21:24;0.98;;;0.32;;
18046;SDS011;9148;51.454;13.862;2022-09-09T16:24:15;10.25;;;1.25;;
18046;SDS011;9148;51.454;13.862;2022-09-09T16:26:46;1.15;;;0.85;;
18046;SDS011;9148;51.454;13.862;2022-09-09T16:29:14;3.00;;;1.23;;
18046;SDS011;9148;51.454;13.862;2022-09-09T16:31:42;2.40;;;2.20;;
18046;SDS011;9148;51.454;13.862;2022-09-09T16:34:09;2.67;;;1.60;;
18046;SDS011;9148;51.454;13.862;2022-09-09T16:36:37;2.42;;;1.58;;
18046;SDS011;9148;51.454;13.862;2022-09-09T16:39:06;0.80;;;0.80;;
18046;SDS011;9148;51.454;13.862;2022-09-09T16:41:35;4.43;;;1.30;;
18046;SDS011;9148;51.454;13.862;2022-09-09T16:44:04;0.38;;;0.30;;
18046;SDS011;9148;51.454;13.862;2022-09-09T16:46:33;0.30;;;0.30;;
18046;SDS011;9148;51.454;13.862;2022-09-09T16:49:02;1.15;;;0.35;;
18046;SDS011;9148;51.454;13.862;2022-09-09T16:51:33;0.52;;;0.32;;
18046;SDS011;9148;51.454;13.862;2022-09-09T16:54:06;0.75;;;0.60;;
18046;SDS011;9148;51.454;13.862;2022-09-09T16:56:33;1.75;;;0.68;;
18046;SDS011;9148;51.454;13.862;2022-09-09T16:59:03;1.92;;;0.40;;
18046;SDS011;9148;51.454;13.862;2022-09-09T17:01:34;0.47;;;0.40;;
18046;SDS011;9148;51.454;13.862;2022-09-09T17:04:03;0.40;;;0.40;;
18046;SDS011;9148;51.454;13.862;2022-09-09T17:06:38;0.77;;;0.50;;
18046;SDS011;9148;51.454;13.862;2022-09-09T17:09:06;1.38;;;0.50;;
18046;SDS011;9148;51.454;13.862;2022-09-09T17:11:34;0.75;;;0.30;;
18046;SDS011;9148;51.454;13.862;2022-09-09T17:14:01;0.10;;;0.10;;
18046;SDS011;9148;51.454;13.862;2022-09-09T17:16:29;0.10;;;0.10;;
18046;SDS011;9148;51.454;13.862;2022-09-09T17:18:57;0.30;;;0.30;;
18046;SDS011;9148;51.454;13.862;2022-09-09T17:21:26;1.52;;;0.60;;
18046;SDS011;9148;51.454;13.862;2022-09-09T17:23:53;0.30;;;0.30;;
18046;SDS011;9148;51.454;13.862;2022-09-09T17:26:21;0.52;;;0.30;;
18046;SDS011;9148;51.454;13.862;2022-09-09T17:28:55;0.52;;;0.30;;
18046;SDS011;9148;51.454;13.862;2022-09-09T17:31:23;0.30;;;0.30;;